Latest Weather Observations for Cowley Beach (Defence)

IDQ60801

Issued at 6:02 pm EST Monday 25 September 2017 (issued every 30 minutes, with the page automatically refreshed every 10 minutes)

About weather observations | Map of weather stations | Latest weather observations for QLD | Other Formats
Station Details ID: 032194 Name: COWLEY BEACH (DEFENCE) Lat: -17.69 Lon: 146.11 Height: 17.0 m
Data from the previous 72 hours. | See also: Recent months for locations in Queensland
Date/Time
EST
Temp
°C
App
Temp
°C
Dew
Point
°C
Rel
Hum
%
Delta-T
°C
Wind Press
QNH
hPa
Press
MSL
hPa
Rain since
9am
mm
Dir  Spd
km/h
Gust
km/h
Spd
kts
Gust
kts
25/06:00pm 24.2 25.8 17.9 68 3.9 ENE 6 9 3 5 - - 0.0
25/05:30pm 25.0 26.1 18.0 65 4.4 ENE 9 13 5 7 - - 0.0
25/05:00pm 25.4 26.4 17.8 62 4.8 E 9 13 5 7 - - 0.0
25/04:30pm 26.2 26.8 17.8 60 5.3 ENE 11 15 6 8 - - 0.0
25/04:00pm 25.9 26.4 17.5 59 5.3 E 11 15 6 8 - - 0.0
25/03:30pm 26.1 27.0 18.5 63 4.8 E 11 20 6 11 - - 0.0
25/03:00pm 26.5 27.1 18.6 62 5.0 ENE 13 17 7 9 - - 0.0
25/02:30pm 26.5 27.1 17.6 58 5.6 E 11 17 6 9 - - 0.0
25/02:00pm 26.8 28.1 17.6 57 5.8 E 7 13 4 7 - - 0.0
25/01:30pm 26.4 27.0 16.9 56 5.9 E 9 13 5 7 - - 0.0
25/01:00pm 26.1 27.4 17.5 59 5.4 E 7 13 4 7 - - 0.0
25/12:30pm 26.4 27.4 16.3 53 6.2 ESE 6 9 3 5 - - 0.0
25/12:00pm 26.7 28.5 18.3 60 5.3 ESE 6 11 3 6 - - 0.0
25/11:30am 26.8 28.3 18.1 59 5.5 ESE 7 9 4 5 - - 0.0
25/11:00am 26.1 27.8 18.0 61 5.1 ESE 6 9 3 5 - - 0.0
25/10:30am 26.1 28.2 19.0 65 4.6 ESE 6 9 3 5 - - 0.0
25/10:00am 25.8 28.2 18.7 65 4.5 SE 4 7 2 4 - - 0.0
25/09:30am 24.6 28.0 20.1 76 2.9 WNW 2 4 1 2 - - 0.0
25/09:00am 23.3 25.2 18.6 75 3.0 SW 6 9 3 5 - - 0.0
25/08:30am 21.9 24.1 19.3 85 1.7 SW 6 7 3 4 - - 0.0
25/08:00am 19.9 22.3 18.7 93 0.7 NW 4 6 2 3 - - 0.0
25/07:30am 18.8 21.0 18.3 97 0.3 WNW 4 6 2 3 - - 0.0
25/07:00am 17.3 18.6 17.0 98 0.2 NW 6 9 3 5 - - 0.0
25/06:30am 16.6 17.6 16.3 98 0.2 NW 6 7 3 4 - - 0.0
25/06:00am 16.4 17.6 15.9 97 0.3 NW 4 6 2 3 - - 0.0
25/05:30am 16.6 18.3 16.1 97 0.3 WNW 2 4 1 2 - - 0.0
25/05:00am 17.1 18.7 16.8 98 0.2 NW 4 6 2 3 - - 0.0
25/04:30am 17.1 18.6 16.6 97 0.3 WNW 4 6 2 3 - - 0.0
25/04:00am 17.2 18.7 16.7 97 0.3 NW 4 6 2 3 - - 0.0
25/03:30am 17.2 19.1 16.7 97 0.3 NW 2 6 1 3 - - 0.0
25/03:00am 17.4 18.6 16.9 97 0.3 NW 6 9 3 5 - - 0.0
25/02:30am 17.7 19.4 17.2 97 0.3 NW 4 6 2 3 - - 0.0
25/02:00am 17.8 19.6 17.3 97 0.3 NW 4 6 2 3 - - 0.0
25/01:30am 17.7 19.8 17.2 97 0.3 NW 2 4 1 2 - - 0.0
25/01:00am 17.5 19.5 17.0 97 0.3 NW 2 4 1 2 - - 0.0
25/12:30am 17.4 19.0 16.8 96 0.4 WNW 4 6 2 3 - - 0.0
25/12:00am 18.1 19.9 17.5 96 0.4 WNW 4 6 2 3 - - 0.0
 
Date/Time
EST
Temp
°C
App
Temp
°C
Dew
Point
°C
Rel
Hum
%
Delta-T
°C
Wind Press
QNH
hPa
Press
MSL
hPa
Rain since
9am
mm
Dir  Spd
km/h
Gust
km/h
Spd
kts
Gust
kts
24/11:30pm 18.2 20.1 17.6 96 0.4 NW 4 7 2 4 - - 0.0
24/11:00pm 17.7 19.6 16.7 94 0.6 WNW 2 4 1 2 - - 0.0
24/10:30pm 18.3 20.1 17.3 94 0.6 SW 4 6 2 3 - - 0.0
24/10:00pm 18.3 19.9 17.0 92 0.8 SW 4 6 2 3 - - 0.0
24/09:30pm 18.6 20.3 17.1 91 0.9 SW 4 7 2 4 - - 0.0
24/09:00pm 19.4 21.8 17.0 86 1.5 CALM 0 0 0 0 - - 0.0
24/08:30pm 20.4 22.5 17.2 82 2.0 ENE 2 9 1 5 - - 0.0
24/08:00pm 23.6 25.4 18.3 72 3.3 E 6 9 3 5 - - 0.0
24/07:30pm 23.1 25.2 18.2 74 3.1 E 4 9 2 5 - - 0.0
24/07:00pm 23.7 26.0 18.6 73 3.2 E 4 9 2 5 - - 0.0
24/06:30pm 24.0 25.8 18.4 71 3.5 E 6 11 3 6 - - 0.0
24/06:00pm 24.3 26.7 18.7 71 3.6 E 4 9 2 5 - - 0.0
24/05:30pm 24.9 26.7 18.4 67 4.1 E 6 9 3 5 - - 0.0
24/05:00pm 25.4 27.0 17.8 62 4.8 E 6 9 3 5 - - 0.0
24/04:30pm 25.7 27.3 17.9 62 4.9 E 6 9 3 5 - - 0.0
24/04:00pm 26.5 28.6 18.9 63 4.9 ESE 6 9 3 5 - - 0.0
24/03:30pm 25.9 27.6 18.1 62 4.9 E 6 9 3 5 - - 0.0
24/03:00pm 26.6 28.6 18.7 62 5.0 ESE 6 9 3 5 - - 0.0
24/02:30pm 26.5 28.0 17.6 58 5.6 ESE 6 9 3 5 - - 0.0
24/02:00pm 26.8 28.5 18.1 59 5.5 ESE 6 9 3 5 - - 0.0
24/01:30pm 26.2 26.9 17.0 57 5.7 E 9 13 5 7 - - 0.0
24/01:00pm 26.7 28.4 18.6 61 5.2 E 7 11 4 6 - - 0.0
24/12:30pm 27.1 29.1 18.7 60 5.4 E 6 9 3 5 - - 0.0
24/12:00pm 26.4 27.9 17.7 58 5.5 E 6 9 3 5 - - 0.0
24/11:30am 26.9 28.8 18.5 60 5.4 ESE 6 11 3 6 - - 0.0
24/11:00am 26.4 28.1 18.0 60 5.3 ESE 6 11 3 6 - - 0.0
24/10:30am 26.7 28.9 19.1 63 4.9 SE 6 9 3 5 - - 0.0
24/10:00am 26.0 28.7 19.4 67 4.3 SSE 4 9 2 5 - - 0.0
24/09:30am 25.7 27.9 19.3 67 4.1 SSE 6 9 3 5 - - 0.0
24/09:00am 25.6 28.4 19.7 70 3.8 SSE 4 7 2 4 - - 0.0
24/08:30am 23.5 26.1 20.0 81 2.3 SW 6 9 3 5 - - 0.0
24/08:00am 21.5 24.5 20.0 91 1.0 WSW 4 6 2 3 - - 0.0
24/07:30am 19.8 22.4 19.3 97 0.3 W 4 6 2 3 - - 0.0
24/07:00am 18.2 21.0 17.9 98 0.2 CALM 0 0 0 0 - - 0.0
24/06:30am 16.7 18.5 16.4 98 0.2 NW 2 6 1 3 - - 0.0
24/06:00am 17.2 18.8 16.9 98 0.2 NW 4 6 2 3 - - 0.0
24/05:30am 16.8 18.2 16.3 97 0.3 NW 4 6 2 3 - - 0.0
24/05:00am 17.0 18.4 16.5 97 0.3 NW 4 6 2 3 - - 0.0
24/04:30am 17.8 20.0 17.5 98 0.2 NNW 2 4 1 2 - - 0.0
24/04:00am 18.0 19.9 17.7 98 0.2 WNW 4 6 2 3 - - 0.0
24/03:30am 17.5 19.9 17.0 97 0.3 CALM 0 4 0 2 - - 0.0
24/03:00am 18.1 20.1 17.8 98 0.2 NW 4 6 2 3 - - 0.0
24/02:30am 17.1 18.6 16.6 97 0.3 NW 4 6 2 3 - - 0.0
24/02:00am 17.2 18.7 16.7 97 0.3 WSW 4 6 2 3 - - 0.0
24/01:30am 17.4 19.0 16.8 96 0.4 WSW 4 6 2 3 - - 0.0
24/01:00am 17.8 19.9 17.2 96 0.4 W 2 2 1 1 - - 0.0
24/12:30am 18.2 20.1 17.6 96 0.4 SW 4 4 2 2 - - 0.0
24/12:00am 18.6 20.6 17.9 96 0.4 SW 4 6 2 3 - - 0.0
 
Date/Time
EST
Temp
°C
App
Temp
°C
Dew
Point
°C
Rel
Hum
%
Delta-T
°C
Wind Press
QNH
hPa
Press
MSL
hPa
Rain since
9am
mm
Dir  Spd
km/h
Gust
km/h
Spd
kts
Gust
kts
23/11:30pm 18.9 21.0 18.2 96 0.4 SW 4 6 2 3 - - 0.0
23/11:00pm 18.7 20.3 17.9 95 0.5 SW 6 7 3 4 - - 0.0
23/10:30pm 19.2 21.0 18.2 94 0.6 SW 6 6 3 3 - - 0.0
23/10:00pm 19.3 21.5 18.3 94 0.6 SW 4 6 2 3 - - 0.0
23/09:30pm 19.1 21.8 17.8 92 0.8 CALM 0 0 0 0 - - 0.0
23/09:00pm 19.6 22.3 17.7 89 1.2 CALM 0 0 0 0 - - 0.0
23/08:30pm 21.1 23.3 18.3 84 1.7 E 4 7 2 4 - - 0.0
23/08:00pm 21.7 23.9 18.3 81 2.1 E 4 6 2 3 - - 0.0
23/07:30pm 23.6 26.0 18.7 74 3.1 E 4 7 2 4 - - 0.0
23/07:00pm 23.8 25.9 18.9 74 3.1 E 6 9 3 5 - - 0.0
23/06:30pm 24.2 26.4 19.5 75 3.0 ENE 7 11 4 6 - - 0.0
23/06:00pm 24.3 26.5 19.1 73 3.3 E 6 9 3 5 - - 0.0
23/05:30pm 24.8 26.8 18.7 69 3.9 E 6 9 3 5 - - 0.0
23/05:00pm 25.2 27.1 18.9 68 4.0 E 7 9 4 5 - - 0.0
23/04:30pm 25.5 27.4 18.9 67 4.2 E 7 11 4 6 - - 0.0
23/04:00pm 25.8 27.8 19.2 67 4.2 E 7 11 4 6 - - 0.0
23/03:30pm 25.9 27.9 19.1 66 4.4 E 7 11 4 6 - - 0.0
23/03:00pm 26.0 28.1 19.4 67 4.3 E 7 13 4 7 - - 0.0
23/02:30pm 26.4 27.9 19.8 67 4.3 E 11 15 6 8 - - 0.0
23/02:00pm 26.2 28.4 19.6 67 4.3 E 7 13 4 7 - - 0.0
23/01:30pm 26.5 29.0 19.9 67 4.3 ESE 6 11 3 6 - - 0.0
23/01:00pm 26.6 28.5 19.0 63 4.9 ESE 7 11 4 6 - - 0.0
23/12:30pm 27.1 29.4 19.4 62 5.0 ESE 6 9 3 5 - - 0.0
23/12:00pm 27.0 29.5 19.9 65 4.6 ESE 6 9 3 5 - - 0.0
23/11:30am 27.2 29.5 19.5 62 5.0 ESE 6 9 3 5 - - 0.0
23/11:00am 26.7 29.3 20.1 67 4.3 ESE 6 9 3 5 - - 0.0
23/10:30am 26.3 29.4 20.2 69 4.0 SE 4 7 2 4 - - 0.0
23/10:00am 26.0 29.2 20.6 72 3.5 ESE 4 6 2 3 - - 0.0
23/09:30am 25.5 28.5 20.1 72 3.5 ESE 4 6 2 3 - - 0.0
23/09:00am 24.8 28.1 20.7 78 2.7 SSE 4 7 2 4 - - 0.0
23/08:30am 22.8 27.5 22.0 95 0.5 CALM 0 2 0 1 - - 0.0
23/08:00am 21.3 25.6 21.1 99 0.1 CALM 0 0 0 0 - - 0.0
23/07:30am 19.5 22.5 19.3 99 0.1 WNW 2 4 1 2 - - 0.0
23/07:00am 18.3 20.4 18.0 98 0.2 NW 4 6 2 3 - - 0.0
23/06:30am 18.0 19.9 17.7 98 0.2 NW 4 6 2 3 - - 0.0
23/06:00am 18.0 19.4 17.7 98 0.2 NW 7 9 4 5 - - 0.0
23/05:30am 18.0 19.5 17.7 98 0.2 NW 6 9 3 5 - - 0.0
23/05:00am 18.0 19.5 17.7 98 0.2 NW 6 9 3 5 - - 0.0
23/04:30am 18.1 19.7 17.8 98 0.2 NW 6 7 3 4 - - 0.0
23/04:00am 18.2 19.8 17.9 98 0.2 NW 6 9 3 5 - - 0.0
23/03:30am 18.3 20.3 17.8 97 0.3 NW 4 4 2 2 - - 0.0
23/03:00am 18.8 21.1 18.5 98 0.2 NW 4 6 2 3 - - 0.0
23/02:30am 18.6 21.1 18.1 97 0.3 WNW 2 4 1 2 - - 0.0
23/02:00am 19.1 21.4 18.6 97 0.3 NW 4 6 2 3 - - 0.0
23/01:30am 18.7 20.8 18.2 97 0.3 NW 4 6 2 3 - - 0.0
23/01:00am 18.7 21.5 18.0 96 0.4 CALM 0 0 0 0 - - 0.0
23/12:30am 19.3 22.0 18.6 96 0.4 W 2 4 1 2 - - 0.0
23/12:00am 19.9 22.9 19.2 96 0.4 SW 2 4 1 2 - - 0.0
 
Date/Time
EST
Temp
°C
App
Temp
°C
Dew
Point
°C
Rel
Hum
%
Delta-T
°C
Wind Press
QNH
hPa
Press
MSL
hPa
Rain since
9am
mm
Dir  Spd
km/h
Gust
km/h
Spd
kts
Gust
kts
22/11:30pm 20.1 23.2 19.4 96 0.4 SW 2 4 1 2 - - 0.0
22/11:00pm 20.2 22.9 19.5 96 0.4 SSW 4 6 2 3 - - 0.0
22/10:30pm 20.0 22.6 19.3 96 0.4 SW 4 4 2 2 - - 0.0
22/10:00pm 19.8 22.3 19.1 96 0.4 SW 4 6 2 3 - - 0.0
22/09:30pm 19.5 22.6 18.7 95 0.5 CALM 0 0 0 0 - - 0.0
22/09:00pm 19.8 22.9 18.6 93 0.7 CALM 0 0 0 0 - - 0.0
22/08:30pm 20.4 23.7 19.1 92 0.8 CALM 0 0 0 0 - - 0.0
22/08:00pm 21.2 23.8 19.3 89 1.2 ENE 4 6 2 3 - - 0.0
22/07:30pm 22.7 25.2 19.9 84 1.8 ENE 6 9 3 5 - - 0.0
22/07:00pm 24.4 27.2 20.5 79 2.5 NE 6 9 3 5 - - 0.0
22/06:30pm 24.5 27.3 20.4 78 2.7 NE 6 11 3 6 - - 0.0

Other Formats:

Comma delimited format used in spreadsheet applications
http://www.bom.gov.au/fwo/IDQ60801/IDQ60801.99218.axf

JavaScript Object Notation format (JSON) in row-major order
http://www.bom.gov.au/fwo/IDQ60801/IDQ60801.99218.json